Tucson, AZ

5:46 PM MST on December 10, 2016 (GMT -0700)
UA WRRC WEATHER | | Change Station

Elev 2431 ft 32.23 °N, 110.94 °W | Updated 9 minutes ago

Partly Cloudy
Partly Cloudy
66.9 °F
Feels Like 66.9 °F
N
8.0
Wind Variable Wind from South
Gusts 11.0 mph

Today
High -- | Low -- °F
--% Chance of Precip.
Yesterday
High -- | Low -- °F
Precip. -- in
Pressure 30.00 in
Visibility 10.0 miles
Clouds Clear
Dew Point 38 °F
Humidity 34%
Rainfall 0.00 in
Snow Depth Not available.
7:14 AM 5:19 PM
Waxing Gibbous, 87% visible
METAR KDMA 102358Z AUTO 32008KT 10SM CLR 20/01 A3006 RMK AO2 SLP159 T02040010 10229 20185 55004 CHINO RWY30 $
Pressure 30.00 in
Visibility 10.0 miles
Clouds Clear
Dew Point 38 °F
Humidity 34%
Rainfall 0.00 in
Snow Depth Not available.
7:14 AM 5:19 PM
Waxing Gibbous, 87% visible
METAR KDMA 102358Z AUTO 32008KT 10SM CLR 20/01 A3006 RMK AO2 SLP159 T02040010 10229 20185 55004 CHINO RWY30 $

10-Day Weather Forecast

Almanac

Astronomy

Dec. 10, 2016 Rise Set
Actual Time
Civil Twilight
Nautical Twilight
Astronomical Twilight
Moon
Length of Visible Light
Length of Day
Tomorrow will be .
, % of the Moon is Illuminated

Today's Extremes

State Highs State Lows

Community

WunderPhotos

Upload Photos

1,956,685 photos uploaded!

WunderBlog® & News

Nearby

Air Quality

  Air Quality AQ Index Pollutant
Not available.

Snow Depth

Station Depth Elevation

Earthquake Activity

City Distance Mag. Time & Date
Minimum magnitude displayed is 2.5.

Coastal Water Temperatures

Place Temperature

Stations

Nearby Weather Stations

Station Location Temp. Windchill Dew Point Humidity Wind Precip. Elev Updated Type
                   

Watches & Warnings

There are currently no watches in effect.